Time;durP1;ratioP1;P1;durP2;ratioP2;P2;SDS_P1;SDS_P2;PMS_P1;PMS_P2;Temp;Humidity;BMP_temperature;BMP_pressure;BME280_temperature;BME280_humidity;BME280_pressure;Samples;Min_cycle;Max_cycle;Signal;HPM_P1;HPM_P2
2023/01/13 00:00:05;;;;;;;6.32;1.48;;;;;;;7.29;100.00;100310.66;5056298;28;20036;-73
2023/01/13 00:02:31;;;;;;;9.68;1.70;;;;;;;7.22;100.00;100303.78;5056097;28;20040;-73
2023/01/13 00:04:57;;;;;;;8.80;1.67;;;;;;;7.19;100.00;100301.56;5064401;28;20032;-73
2023/01/13 00:07:22;;;;;;;15.90;2.17;;;;;;;7.19;100.00;100302.41;5061179;28;20043;-73
2023/01/13 00:09:48;;;;;;;9.00;1.67;;;;;;;7.13;100.00;100300.72;5055996;28;20051;-73
2023/01/13 00:12:13;;;;;;;7.35;1.70;;;;;;;7.10;100.00;100304.91;5057610;28;20052;-73
2023/01/13 00:14:39;;;;;;;10.13;1.30;;;;;;;7.08;100.00;100295.22;5067137;28;20037;-73
2023/01/13 00:17:04;;;;;;;5.93;1.20;;;;;;;7.03;100.00;100298.81;5061413;28;20036;-73
2023/01/13 00:19:30;;;;;;;7.50;1.60;;;;;;;7.02;100.00;100304.59;5055983;28;20032;-73
2023/01/13 00:21:55;;;;;;;8.52;1.63;;;;;;;7.00;100.00;100301.28;5067133;28;20037;-73
2023/01/13 00:24:20;;;;;;;10.57;1.42;;;;;;;6.99;100.00;100305.16;5067360;28;20029;-73
2023/01/13 00:26:46;;;;;;;6.57;1.40;;;;;;;6.96;100.00;100297.41;5057068;28;20041;-73
2023/01/13 00:29:11;;;;;;;7.00;1.80;;;;;;;6.95;100.00;100288.31;5075622;28;20021;-73
2023/01/13 00:31:37;;;;;;;9.50;1.88;;;;;;;6.94;100.00;100295.78;5060776;28;20055;-73
2023/01/13 00:34:03;;;;;;;7.85;1.98;;;;;;;6.93;100.00;100287.75;5055733;28;20029;-73
2023/01/13 00:36:29;;;;;;;9.00;1.60;;;;;;;6.89;100.00;100278.38;5072374;28;20159;-73
2023/01/13 00:38:55;;;;;;;8.75;1.67;;;;;;;6.87;100.00;100284.16;5058237;28;20064;-73
2023/01/13 00:41:21;;;;;;;8.15;1.52;;;;;;;6.87;100.00;100275.88;5055506;28;20029;-73
2023/01/13 00:43:47;;;;;;;10.35;1.80;;;;;;;6.87;100.00;100270.34;5070857;28;20048;-73
2023/01/13 00:46:17;;;;;;;7.97;1.88;;;;;;;6.85;100.00;100275.34;5067517;28;20024;-73
2023/01/13 00:48:42;;;;;;;12.00;1.98;;;;;;;6.83;100.00;100273.97;5055208;28;20021;-73
2023/01/13 00:51:13;;;;;;;12.75;2.25;;;;;;;6.83;100.00;100280.31;5071030;28;20063;-73
2023/01/13 00:53:40;;;;;;;14.02;2.00;;;;;;;6.81;100.00;100288.03;5075384;28;20607;-73
2023/01/13 00:56:08;;;;;;;5.80;1.50;;;;;;;6.80;100.00;100291.03;5058412;28;20025;-73
2023/01/13 00:58:34;;;;;;;10.73;2.42;;;;;;;6.78;100.00;100288.56;5054926;28;20086;-73
2023/01/13 01:01:05;;;;;;;11.10;2.22;;;;;;;6.78;100.00;100294.09;5071048;28;20024;-73
2023/01/13 01:03:30;;;;;;;10.05;1.55;;;;;;;6.81;100.00;100293.53;5054035;28;20456;-73
2023/01/13 01:05:57;;;;;;;12.70;1.90;;;;;;;6.80;100.00;100296.56;5058931;28;20029;-73
2023/01/13 01:08:22;;;;;;;15.43;1.88;;;;;;;6.83;100.00;100307.91;5064106;28;20033;-73
2023/01/13 01:10:47;;;;;;;14.30;2.40;;;;;;;6.82;100.00;100314.50;5054853;28;20033;-73
2023/01/13 01:13:16;;;;;;;11.73;2.25;;;;;;;6.83;100.00;100307.91;5055542;28;20033;-73
2023/01/13 01:15:44;;;;;;;16.42;2.47;;;;;;;6.83;100.00;100296.88;5068340;28;20029;-73
2023/01/13 01:18:09;;;;;;;13.93;2.40;;;;;;;6.87;100.00;100306.25;5055073;28;20017;-74
2023/01/13 01:20:37;;;;;;;14.43;2.47;;;;;;;6.85;100.00;100305.72;5054894;28;20405;-73
2023/01/13 01:23:03;;;;;;;12.63;2.42;;;;;;;6.84;100.00;100300.44;5054632;28;20178;-73
2023/01/13 01:25:28;;;;;;;20.52;3.00;;;;;;;6.82;100.00;100306.22;5054721;28;20029;-73
2023/01/13 01:27:54;;;;;;;14.68;2.40;;;;;;;6.82;100.00;100314.50;5070147;28;20472;-73
2023/01/13 01:30:19;;;;;;;16.33;2.28;;;;;;;6.81;100.00;100310.09;5071030;28;20035;-73
2023/01/13 01:32:45;;;;;;;12.38;1.90;;;;;;;6.77;100.00;100314.53;5063978;28;20029;-73
2023/01/13 01:35:10;;;;;;;22.63;2.85;;;;;;;6.74;100.00;100314.22;5073027;28;20040;-73
2023/01/13 01:37:36;;;;;;;15.68;2.47;;;;;;;6.73;100.00;100318.91;5062823;28;20049;-73
2023/01/13 01:40:01;;;;;;;15.95;2.50;;;;;;;6.69;100.00;100331.63;5057682;28;20033;-73
2023/01/13 01:45:21;;;;;;;15.07;2.05;;;;;;;6.64;100.00;100328.84;5054855;28;20033;-73
2023/01/13 01:47:48;;;;;;;17.65;2.45;;;;;;;6.59;100.00;100340.69;5064395;28;20029;-73
2023/01/13 01:50:14;;;;;;;13.45;2.20;;;;;;;6.57;100.00;100344.81;5053381;28;20425;-73
2023/01/13 01:52:41;;;;;;;9.77;1.80;;;;;;;6.53;100.00;100343.72;5058198;28;20091;-74
2023/01/13 01:55:09;;;;;;;17.75;2.47;;;;;;;6.51;100.00;100349.50;5064902;28;20108;-73
2023/01/13 01:57:39;;;;;;;21.00;2.53;;;;;;;6.45;100.00;100350.59;5069687;28;20036;-73
2023/01/13 02:00:05;;;;;;;16.13;2.40;;;;;;;6.41;100.00;100357.75;5053144;28;20021;-74
2023/01/13 02:02:30;;;;;;;15.88;2.15;;;;;;;6.38;100.00;100361.88;5054451;28;20493;-73
2023/01/13 02:04:55;;;;;;;24.13;2.40;;;;;;;6.35;100.00;100365.19;5054575;28;20024;-73
2023/01/13 02:07:25;;;;;;;12.95;1.63;;;;;;;6.31;100.00;100361.28;5067558;28;20056;-73
2023/01/13 02:09:51;;;;;;;15.10;2.47;;;;;;;6.32;100.00;100373.97;5061515;28;20028;-73
2023/01/13 02:12:30;;;;;;;14.70;2.05;;;;;;;6.26;100.00;100372.28;5060325;28;20033;-73
2023/01/13 02:15:10;;;;;;;14.25;2.00;;;;;;;6.24;100.00;100377.22;5057726;28;20033;-73
2023/01/13 02:17:50;;;;;;;15.82;2.33;;;;;;;6.20;100.00;100376.94;5071152;28;20063;-73
2023/01/13 02:20:58;;;;;;;17.60;2.30;;;;;;;6.18;100.00;100394.84;5071205;28;20036;-73
2023/01/13 02:26:23;;;;;;;13.73;2.00;;;;;;;6.09;100.00;100383.50;5068345;28;20043;-73
2023/01/13 02:31:56;;;;;;;19.27;2.60;;;;;;;6.04;100.00;100409.16;5057889;28;20043;-73
2023/01/13 02:34:35;;;;;;;13.20;2.42;;;;;;;6.04;100.00;100416.56;5056459;28;20033;-73
2023/01/13 02:37:08;;;;;;;15.35;2.70;;;;;;;6.00;100.00;100419.03;5071433;28;20045;-73
2023/01/13 02:39:56;;;;;;;17.52;2.50;;;;;;;5.97;100.00;100411.28;5072408;28;20477;-73
2023/01/13 02:45:17;;;;;;;18.27;2.33;;;;;;;5.93;100.00;100406.53;5063595;28;20028;-73
2023/01/13 02:47:43;;;;;;;17.98;2.63;;;;;;;5.90;100.00;100412.59;5075551;28;20029;-73
2023/01/13 02:50:16;;;;;;;13.50;2.40;;;;;;;5.90;100.00;100415.34;5073022;28;20455;-73
2023/01/13 02:52:48;;;;;;;13.30;1.92;;;;;;;5.85;100.00;100420.81;5071089;28;20032;-73
2023/01/13 02:55:16;;;;;;;18.40;2.63;;;;;;;5.82;100.00;100419.41;5039991;28;20043;-73
2023/01/13 02:57:42;;;;;;;9.27;1.98;;;;;;;5.78;100.00;100419.13;5052881;28;20028;-73
2023/01/13 03:00:08;;;;;;;11.07;1.70;;;;;;;5.77;100.00;100416.66;5072859;28;20063;-73
2023/01/13 03:02:34;;;;;;;16.75;2.20;;;;;;;5.76;100.00;100431.50;5056063;28;20129;-73
2023/01/13 03:04:59;;;;;;;19.63;2.58;;;;;;;5.69;100.00;100419.88;5057293;28;20029;-73
2023/01/13 03:07:25;;;;;;;10.00;2.00;;;;;;;5.66;100.00;100423.19;5068792;28;20064;-73
2023/01/13 03:10:18;;;;;;;14.32;1.58;;;;;;;5.68;100.00;100415.44;5057437;28;20064;-73
2023/01/13 03:12:48;;;;;;;11.45;1.75;;;;;;;5.64;100.00;100419.84;5070881;28;20050;-73
2023/01/13 03:15:39;;;;;;;12.98;1.67;;;;;;;5.63;100.00;100420.91;5055759;28;20698;-73
2023/01/13 03:18:41;;;;;;;12.73;1.95;;;;;;;5.62;100.00;100408.25;5070219;28;20021;-73
2023/01/13 03:21:41;;;;;;;13.80;1.93;;;;;;;5.62;100.00;100413.75;5064407;28;20100;-73
2023/01/13 03:24:08;;;;;;;16.52;2.70;;;;;;;5.63;100.00;100412.66;5058791;28;20043;-73
2023/01/13 03:26:46;;;;;;;8.02;1.80;;;;;;;5.65;100.00;100407.72;5064546;28;20047;-73
2023/01/13 03:29:20;;;;;;;12.10;2.30;;;;;;;5.66;100.00;100410.22;5064418;28;20024;-73
2023/01/13 03:32:09;;;;;;;13.00;2.10;;;;;;;5.71;100.00;100421.28;5059696;28;20036;-74
2023/01/13 03:34:44;;;;;;;11.98;2.85;;;;;;;5.73;100.00;100419.06;5073511;28;20059;-73
2023/01/13 03:37:10;;;;;;;13.93;2.47;;;;;;;5.76;100.00;100428.75;5052595;28;20049;-73
2023/01/13 03:39:38;;;;;;;13.70;2.50;;;;;;;5.81;100.00;100437.06;5085129;28;20543;-73
2023/01/13 03:42:09;;;;;;;18.98;2.35;;;;;;;5.83;100.00;100440.38;5062267;28;20037;-73
2023/01/13 03:44:40;;;;;;;14.77;2.13;;;;;;;5.85;100.00;100440.97;5056617;28;20032;-73
2023/01/13 03:47:17;;;;;;;14.73;2.65;;;;;;;5.90;100.00;100435.47;5058989;28;20029;-73
2023/01/13 03:49:50;;;;;;;15.45;2.70;;;;;;;5.94;100.00;100433.06;5073053;28;20063;-73
2023/01/13 03:52:20;;;;;;;21.15;3.15;;;;;;;5.95;100.00;100441.03;5073167;28;20037;-73
2023/01/13 03:54:50;;;;;;;18.35;3.35;;;;;;;5.97;100.00;100449.88;5054103;28;20077;-73
2023/01/13 03:57:16;;;;;;;19.33;3.28;;;;;;;5.99;100.00;100455.97;5071419;28;20033;-73
2023/01/13 03:59:44;;;;;;;16.08;3.00;;;;;;;6.03;100.00;100456.25;5053723;28;20105;-73
2023/01/13 04:02:20;;;;;;;17.77;2.90;;;;;;;6.02;100.00;100451.84;5038492;28;20033;-73
2023/01/13 04:04:53;;;;;;;13.73;2.45;;;;;;;6.04;100.00;100445.00;5071024;28;20033;-73
2023/01/13 04:07:41;;;;;;;15.32;2.38;;;;;;;6.09;100.00;100451.63;5052217;28;20071;-73
2023/01/13 04:10:07;;;;;;;14.40;2.30;;;;;;;6.11;100.00;100455.78;5075843;28;20032;-73
2023/01/13 04:12:59;;;;;;;13.73;2.70;;;;;;;6.11;100.00;100450.25;5045611;28;20024;-73
2023/01/13 04:15:26;;;;;;;17.33;3.00;;;;;;;6.15;100.00;100450.56;5047073;28;20125;-73
2023/01/13 04:17:52;;;;;;;19.17;3.30;;;;;;;6.17;100.00;100454.69;5074719;28;20078;-73
2023/01/13 04:20:18;;;;;;;14.10;2.35;;;;;;;6.21;100.00;100455.84;5066600;28;20040;-73
2023/01/13 04:22:43;;;;;;;16.70;3.22;;;;;;;6.23;100.00;100447.28;5062045;28;20030;-73
2023/01/13 04:25:10;;;;;;;14.75;2.88;;;;;;;6.24;100.00;100452.56;5061222;28;20386;-73
2023/01/13 04:27:35;;;;;;;15.55;2.13;;;;;;;6.26;100.00;100452.28;5055660;28;20021;-73
2023/01/13 04:30:01;;;;;;;16.45;2.30;;;;;;;6.28;100.00;100449.25;5085984;28;20074;-73
2023/01/13 04:32:26;;;;;;;16.00;2.90;;;;;;;6.30;100.00;100447.91;5067284;28;20025;-73
2023/01/13 04:34:52;;;;;;;23.10;3.05;;;;;;;6.32;100.00;100450.38;5061094;28;20032;-73
2023/01/13 04:37:17;;;;;;;21.55;2.78;;;;;;;6.34;100.00;100450.94;5066887;28;20074;-73
2023/01/13 04:39:42;;;;;;;10.50;2.20;;;;;;;6.36;100.00;100448.75;5058291;28;20040;-73
2023/01/13 04:42:08;;;;;;;19.17;3.25;;;;;;;6.37;100.00;100448.47;5055425;28;20025;-73
2023/01/13 04:44:36;;;;;;;13.85;2.67;;;;;;;6.39;100.00;100450.97;5065655;28;20389;-73
2023/01/13 04:47:02;;;;;;;18.35;2.50;;;;;;;6.40;100.00;100456.22;5055254;28;20029;-74
2023/01/13 04:49:27;;;;;;;20.50;3.03;;;;;;;6.41;100.00;100465.34;5055462;28;20029;-73
2023/01/13 04:51:53;;;;;;;14.45;2.88;;;;;;;6.43;100.00;100472.22;5063526;28;20107;-73
2023/01/13 04:54:18;;;;;;;19.83;3.10;;;;;;;6.44;100.00;100475.84;5072156;28;20036;-73
2023/01/13 04:56:44;;;;;;;16.80;2.72;;;;;;;6.45;100.00;100483.00;5066805;28;20037;-73
2023/01/13 04:59:10;;;;;;;16.05;2.83;;;;;;;6.46;100.00;100496.53;5066909;28;20032;-73
2023/01/13 05:01:36;;;;;;;19.83;3.35;;;;;;;6.46;100.00;100491.03;5054177;28;20482;-73
2023/01/13 05:04:02;;;;;;;21.25;2.88;;;;;;;6.47;100.00;100497.38;5068261;28;20064;-73
2023/01/13 05:06:28;;;;;;;21.27;2.70;;;;;;;6.46;100.00;100491.03;5054868;28;20032;-73
2023/01/13 05:08:53;;;;;;;18.50;3.40;;;;;;;6.45;100.00;100508.66;5053728;28;20044;-73
2023/01/13 05:17:00;;;;;;;18.33;2.88;;;;;;;6.46;100.00;100507.56;5063713;28;20043;-73
2023/01/13 05:19:28;;;;;;;21.00;3.25;;;;;;;6.45;100.00;100522.44;5073920;28;20063;-73
2023/01/13 05:27:22;;;;;;;19.67;3.47;;;;;;;6.40;100.00;100519.66;5054603;28;20040;-73
2023/01/13 05:29:48;;;;;;;23.60;3.17;;;;;;;6.38;100.00;100527.38;5066234;28;20032;-73
2023/01/13 05:32:14;;;;;;;15.20;3.05;;;;;;;6.34;100.00;100512.44;5055171;28;20029;-73
2023/01/13 05:34:39;;;;;;;19.45;2.65;;;;;;;6.33;100.00;100524.59;5058530;28;20385;-73
2023/01/13 05:37:06;;;;;;;22.02;3.65;;;;;;;6.30;100.00;100527.88;5053938;28;20065;-73
2023/01/13 05:43:18;;;;;;;16.95;2.63;;;;;;;6.26;100.00;100530.31;5057623;28;20037;-73
2023/01/13 05:45:01;;;;;;;14.32;2.78;;;;;;;6.14;100.00;100526.94;5067269;28;20405;-73
2023/01/13 05:47:27;;;;;;;20.80;2.83;;;;;;;6.08;100.00;100516.13;5054759;28;20029;-73
2023/01/13 05:49:52;;;;;;;14.88;2.63;;;;;;;6.06;100.00;100524.66;5075464;28;20392;-73
2023/01/13 05:52:18;;;;;;;12.82;3.13;;;;;;;6.01;100.00;100528.19;5067554;28;20033;-73
2023/01/13 05:54:43;;;;;;;18.58;3.05;;;;;;;5.98;100.00;100527.91;5073763;28;20041;-73
2023/01/13 05:57:09;;;;;;;21.73;3.17;;;;;;;5.95;100.00;100532.00;5069241;28;20069;-73
2023/01/13 05:59:34;;;;;;;14.27;2.85;;;;;;;5.87;100.00;100524.19;5060218;28;20032;-73
2023/01/13 06:02:00;;;;;;;16.35;2.80;;;;;;;5.83;100.00;100531.34;5070260;28;20046;-73
2023/01/13 06:04:25;;;;;;;11.38;2.53;;;;;;;5.79;100.00;100535.69;5064011;28;20021;-73
2023/01/13 06:06:50;;;;;;;16.98;2.47;;;;;;;5.73;100.00;100543.09;5057020;28;20389;-73
2023/01/13 06:09:16;;;;;;;15.45;2.45;;;;;;;5.69;100.00;100544.72;5040615;28;20041;-73
2023/01/13 06:11:41;;;;;;;18.52;2.75;;;;;;;5.65;100.00;100545.47;5067371;28;20032;-73
2023/01/13 06:14:07;;;;;;;15.50;3.00;;;;;;;5.65;100.00;100562.84;5059096;28;20039;-73
2023/01/13 06:16:33;;;;;;;19.02;3.03;;;;;;;5.57;100.00;100561.41;5058161;28;20102;-73
2023/01/13 06:18:58;;;;;;;14.55;2.60;;;;;;;5.55;100.00;100563.59;5058169;28;20033;-73
2023/01/13 06:21:23;;;;;;;15.40;2.42;;;;;;;5.53;100.00;100563.00;5073488;28;20083;-73
2023/01/13 06:23:49;;;;;;;14.82;2.17;;;;;;;5.48;100.00;100562.13;5058165;28;20036;-73
2023/01/13 06:26:24;;;;;;;15.27;2.10;;;;;;;5.44;100.00;100556.31;5067443;28;20028;-73
2023/01/13 06:28:49;;;;;;;15.35;2.67;;;;;;;5.39;100.00;100559.00;5054829;28;20029;-73
2023/01/13 06:31:14;;;;;;;12.20;2.30;;;;;;;5.42;100.00;100563.16;5069751;28;20031;-73
2023/01/13 06:33:44;;;;;;;12.10;2.28;;;;;;;5.30;100.00;100560.56;5059766;28;20032;-73
2023/01/13 06:36:12;;;;;;;13.05;2.58;;;;;;;5.32;100.00;100563.84;5065943;28;20040;-73
2023/01/13 06:38:39;;;;;;;8.52;2.35;;;;;;;5.28;100.00;100566.31;5058767;28;20025;-73
2023/01/13 06:41:05;;;;;;;9.95;1.83;;;;;;;5.27;100.00;100566.59;5046956;28;20431;-73
2023/01/13 06:43:30;;;;;;;14.48;2.28;;;;;;;5.20;100.00;100571.44;5086630;28;20029;-73
2023/01/13 06:45:56;;;;;;;10.68;2.00;;;;;;;5.20;100.00;100576.94;5057831;28;20075;-73
2023/01/13 06:48:28;;;;;;;12.63;2.20;;;;;;;5.14;100.00;100587.88;5057533;28;20037;-73
2023/01/13 06:50:54;;;;;;;13.98;2.10;;;;;;;5.06;100.00;100598.53;5070431;28;20586;-73
2023/01/13 06:53:19;;;;;;;11.85;2.30;;;;;;;5.05;100.00;100594.13;5059568;28;20028;-73
2023/01/13 06:55:45;;;;;;;16.10;2.58;;;;;;;5.03;100.00;100602.63;5075315;28;20448;-73
2023/01/13 06:58:10;;;;;;;12.30;2.10;;;;;;;5.01;100.00;100602.03;5057465;28;20032;-73
2023/01/13 07:00:36;;;;;;;12.63;2.22;;;;;;;4.99;100.00;100608.91;5068254;28;20037;-73
2023/01/13 07:03:20;;;;;;;16.50;2.75;;;;;;;4.96;100.00;100610.25;5068384;28;20025;-73
2023/01/13 07:05:53;;;;;;;17.05;2.45;;;;;;;4.91;100.00;100615.66;5058144;28;20036;-73
2023/01/13 07:08:18;;;;;;;18.90;2.60;;;;;;;4.93;100.00;100622.59;5051110;28;20061;-73
2023/01/13 07:10:44;;;;;;;11.93;2.35;;;;;;;4.89;100.00;100618.66;5076150;28;20035;-73
2023/01/13 07:15:57;;;;;;;11.10;1.95;;;;;;;4.88;100.00;100627.19;5058888;28;20033;-73
2023/01/13 07:18:23;;;;;;;16.75;2.65;;;;;;;4.85;100.00;100625.78;5048406;28;20029;-73
2023/01/13 07:21:00;;;;;;;17.00;2.28;;;;;;;4.87;100.00;100628.25;5070413;28;20062;-78
2023/01/13 07:23:29;;;;;;;14.07;2.58;;;;;;;4.86;100.00;100632.94;5056941;28;20036;-72
2023/01/13 07:25:55;;;;;;;11.05;2.25;;;;;;;4.87;100.00;100636.50;5056935;28;20029;-73
2023/01/13 07:28:21;;;;;;;12.35;2.25;;;;;;;4.83;100.00;100635.38;5056632;28;20033;-72
2023/01/13 07:30:47;;;;;;;10.77;1.98;;;;;;;4.82;100.00;100637.28;5056806;28;20559;-73
2023/01/13 07:33:12;;;;;;;14.60;2.40;;;;;;;4.81;100.00;100641.09;5056854;28;20037;-73
2023/01/13 07:35:38;;;;;;;12.80;1.90;;;;;;;4.79;100.00;100640.56;5067412;28;20213;-73
2023/01/13 07:38:03;;;;;;;14.10;2.55;;;;;;;4.81;100.00;100645.78;5064064;28;20056;-73
2023/01/13 07:40:29;;;;;;;19.85;2.30;;;;;;;4.79;100.00;100653.44;5055299;28;20025;-72
2023/01/13 07:45:38;;;;;;;16.73;2.38;;;;;;;4.74;100.00;100669.91;5069779;28;20032;-73
2023/01/13 07:48:04;;;;;;;12.07;1.88;;;;;;;4.70;100.00;100667.63;5056481;28;20025;-73
2023/01/13 07:50:29;;;;;;;13.20;2.42;;;;;;;4.70;100.00;100656.63;5057239;28;20025;-73
2023/01/13 07:52:58;;;;;;;13.15;2.38;;;;;;;4.67;100.00;100661.81;5072317;28;20089;-73
2023/01/13 07:55:23;;;;;;;16.98;2.28;;;;;;;4.65;100.00;100675.84;5063893;28;20388;-73
2023/01/13 07:57:49;;;;;;;13.90;2.00;;;;;;;4.66;100.00;100674.72;5071537;28;20082;-73
2023/01/13 08:00:15;;;;;;;13.20;2.25;;;;;;;4.66;100.00;100680.25;5067383;28;20025;-73
2023/01/13 08:02:40;;;;;;;15.57;2.35;;;;;;;4.62;100.00;100676.31;5071645;28;20021;-73
2023/01/13 08:05:07;;;;;;;15.07;2.35;;;;;;;4.62;100.00;100694.72;5061360;28;20037;-73
2023/01/13 08:07:32;;;;;;;19.73;2.88;;;;;;;4.62;100.00;100695.56;5059965;28;20078;-73
2023/01/13 08:09:58;;;;;;;18.58;2.25;;;;;;;4.64;100.00;100711.84;5056238;28;20029;-73
2023/01/13 08:15:21;;;;;;;11.30;1.90;;;;;;;4.67;100.00;100720.41;5043449;28;20037;-73
2023/01/13 08:17:47;;;;;;;15.20;2.35;;;;;;;4.69;100.00;100729.25;5071528;28;20029;-73
2023/01/13 08:20:12;;;;;;;18.17;2.53;;;;;;;4.72;100.00;100725.16;5055869;28;20428;-73
2023/01/13 08:22:38;;;;;;;20.48;2.97;;;;;;;4.78;100.00;100734.34;5061371;28;20439;-73
2023/01/13 08:25:04;;;;;;;14.55;2.20;;;;;;;4.81;100.00;100739.34;5075161;28;20032;-73
2023/01/13 08:27:29;;;;;;;15.32;2.45;;;;;;;4.85;100.00;100743.28;5055663;28;20033;-73
2023/01/13 08:29:55;;;;;;;13.52;2.42;;;;;;;4.87;100.00;100749.34;5055704;28;20075;-73
2023/01/13 08:32:20;;;;;;;13.48;2.47;;;;;;;4.92;100.00;100744.75;5058977;28;20040;-73
2023/01/13 08:34:46;;;;;;;13.30;2.38;;;;;;;4.98;100.00;100744.84;5070295;28;20031;-73
2023/01/13 08:37:11;;;;;;;13.48;2.10;;;;;;;4.99;100.00;100747.34;5067790;28;20042;-73
2023/01/13 08:39:37;;;;;;;24.67;3.05;;;;;;;5.00;100.00;100749.00;5057046;28;20493;-73
2023/01/13 08:42:03;;;;;;;15.65;2.58;;;;;;;5.03;100.00;100754.00;5055540;28;20025;-73
2023/01/13 08:44:29;;;;;;;14.65;2.55;;;;;;;5.06;100.00;100763.69;5055687;28;20108;-73
2023/01/13 08:46:55;;;;;;;18.00;2.60;;;;;;;5.08;100.00;100761.53;5061848;28;20115;-73
2023/01/13 08:49:21;;;;;;;15.02;2.63;;;;;;;5.10;100.00;100765.69;5071667;28;20044;-73
2023/01/13 08:51:47;;;;;;;15.65;2.92;;;;;;;5.15;100.00;100771.28;5059934;28;20032;-73
2023/01/13 08:54:12;;;;;;;17.63;2.72;;;;;;;5.18;100.00;100771.84;5071737;28;20485;-73
2023/01/13 08:56:42;;;;;;;13.63;2.38;;;;;;;5.24;100.00;100779.97;5058512;28;20500;-73
2023/01/13 08:59:12;;;;;;;18.77;2.83;;;;;;;5.29;100.00;100793.81;5073047;28;20035;-73
2023/01/13 09:01:38;;;;;;;16.98;2.50;;;;;;;5.35;100.00;100801.06;5054991;28;20555;-73
2023/01/13 09:04:04;;;;;;;13.82;2.28;;;;;;;5.42;100.00;100803.63;5084910;28;20055;-73
2023/01/13 09:06:30;;;;;;;16.88;3.15;;;;;;;5.48;100.00;100799.84;5062192;28;20048;-73
2023/01/13 09:08:55;;;;;;;18.75;3.08;;;;;;;5.57;100.00;100798.34;5061130;28;20523;-73
2023/01/13 09:14:22;;;;;;;16.25;2.70;;;;;;;5.76;100.00;100809.06;5069448;28;20080;-73
2023/01/13 09:16:48;;;;;;;11.38;2.75;;;;;;;5.86;100.00;100800.09;5061560;28;20036;-73
2023/01/13 09:19:13;;;;;;;20.05;3.47;;;;;;;5.95;100.00;100799.41;5070474;28;20048;-73
2023/01/13 09:21:39;;;;;;;12.95;2.63;;;;;;;6.05;100.00;100801.50;5070068;28;20075;-73
2023/01/13 09:24:04;;;;;;;24.08;3.85;;;;;;;6.16;100.00;100800.53;5059629;28;20036;-73
2023/01/13 09:26:30;;;;;;;12.48;3.30;;;;;;;6.28;100.00;100816.91;5061030;28;20053;-73
2023/01/13 09:28:55;;;;;;;18.33;2.70;;;;;;;6.37;100.00;100822.81;5066866;28;20037;-73
2023/01/13 09:31:21;;;;;;;16.10;2.50;;;;;;;6.48;100.00;100819.91;5066259;28;20512;-73
2023/01/13 09:36:30;;;;;;;19.02;3.47;;;;;;;6.69;100.00;100829.25;5058768;28;20143;-73
2023/01/13 09:38:56;;;;;;;21.80;3.05;;;;;;;6.79;100.00;100839.53;5064650;28;20405;-73
2023/01/13 09:45:04;;;;;;;16.77;3.17;;;;;;;7.00;100.00;100862.66;5053315;28;20049;-74
2023/01/13 09:48:24;;;;;;;22.52;3.42;;;;;;;7.10;100.00;100875.72;5054730;28;20029;-74
2023/01/13 09:51:17;;;;;;;21.25;3.15;;;;;;;7.19;100.00;100876.94;5047825;28;20877;-74
2023/01/13 09:53:47;;;;;;;32.03;3.80;;;;;;;7.24;100.00;100879.72;5048260;28;20493;-74
2023/01/13 09:56:12;;;;;;;13.95;2.95;;;;;;;7.29;100.00;100885.28;5052994;28;20175;-73
2023/01/13 09:58:38;;;;;;;24.20;3.47;;;;;;;7.34;100.00;100890.03;5060453;28;20581;-73
2023/01/13 10:01:15;;;;;;;21.85;3.35;;;;;;;7.36;100.00;100890.63;5069997;28;20086;-73
2023/01/13 10:03:40;;;;;;;25.58;3.17;;;;;;;7.39;100.00;100890.91;5071283;28;20455;-73
2023/01/13 10:06:33;;;;;;;16.73;3.13;;;;;;;7.43;100.00;100890.38;5038232;28;20045;-73
2023/01/13 10:08:59;;;;;;;22.48;3.25;;;;;;;7.45;100.00;100888.19;5061410;28;20044;-73
2023/01/13 10:14:16;;;;;;;22.52;2.97;;;;;;;7.52;100.00;100889.66;5042776;28;20032;-73
2023/01/13 10:16:56;;;;;;;24.10;4.10;;;;;;;7.55;100.00;100891.03;5060247;28;20067;-73
2023/01/13 10:19:26;;;;;;;23.25;3.40;;;;;;;7.59;100.00;100911.53;5038903;28;20052;-73
2023/01/13 10:22:14;;;;;;;23.98;3.15;;;;;;;7.61;100.00;100910.16;5019416;28;20033;-73
2023/01/13 10:25:17;;;;;;;23.13;3.33;;;;;;;7.66;100.00;100912.16;5049851;28;20043;-73
2023/01/13 10:27:45;;;;;;;24.27;3.83;;;;;;;7.70;100.00;100924.34;5054448;28;20025;-75
2023/01/13 10:30:21;;;;;;;21.77;3.35;;;;;;;7.76;100.00;100926.03;5068218;28;20044;-74
2023/01/13 10:33:01;;;;;;;18.45;3.40;;;;;;;7.82;100.00;100926.91;5062505;28;20036;-74
2023/01/13 10:35:49;;;;;;;22.40;3.63;;;;;;;7.88;100.00;100930.53;5083224;28;20527;-74
2023/01/13 10:38:16;;;;;;;22.60;4.10;;;;;;;7.95;100.00;100933.91;5064535;28;20052;-74
2023/01/13 10:40:56;;;;;;;30.15;4.78;;;;;;;8.02;100.00;100929.81;5058047;28;20029;-74
2023/01/13 10:43:22;;;;;;;29.90;4.57;;;;;;;8.09;100.00;100935.09;5060080;28;20055;-74
2023/01/13 10:45:59;;;;;;;26.17;3.55;;;;;;;8.19;100.00;100942.63;5066028;28;20029;-74
2023/01/13 10:48:38;;;;;;;23.23;3.15;;;;;;;8.27;100.00;100940.22;5063437;28;20054;-74
2023/01/13 10:51:20;;;;;;;27.42;4.07;;;;;;;8.37;100.00;100944.94;5062180;28;20037;-74
2023/01/13 10:54:13;;;;;;;18.10;3.20;;;;;;;8.48;100.00;100940.34;5064716;28;20032;-74
2023/01/13 10:56:43;;;;;;;22.95;3.60;;;;;;;8.59;100.00;100930.97;5044373;28;20025;-74
2023/01/13 10:59:22;;;;;;;29.70;4.65;;;;;;;8.68;100.00;100936.81;5071597;28;20028;-74
2023/01/13 11:02:23;;;;;;;27.55;3.65;;;;;;;8.80;100.00;100937.41;5071383;28;20054;-74
2023/01/13 11:04:52;;;;;;;22.45;3.53;;;;;;;8.90;100.00;100942.97;5065584;28;20040;-74
2023/01/13 11:07:37;;;;;;;19.65;4.13;;;;;;;9.00;100.00;100938.56;5063137;28;20545;-74
2023/01/13 11:10:26;;;;;;;32.75;4.20;;;;;;;9.10;100.00;100944.16;5072759;28;20064;-74
2023/01/13 11:13:07;;;;;;;23.08;3.88;;;;;;;9.21;100.00;100943.06;5079696;28;20440;-74
2023/01/13 11:15:54;;;;;;;26.77;3.72;;;;;;;9.29;100.00;100947.22;5062131;28;20064;-74
2023/01/13 11:19:12;;;;;;;30.35;4.82;;;;;;;9.39;100.00;100967.50;5056944;28;20033;-74
2023/01/13 11:21:40;;;;;;;29.63;4.40;;;;;;;9.47;100.00;100948.63;5060494;28;20385;-74
2023/01/13 11:24:11;;;;;;;25.15;4.18;;;;;;;9.53;100.00;100948.38;5056723;28;20040;-74
2023/01/13 11:26:42;;;;;;;19.88;3.30;;;;;;;9.59;100.00;100930.63;5071842;28;20112;-74
2023/01/13 11:29:15;;;;;;;23.67;3.72;;;;;;;9.68;100.00;100927.28;5056880;28;20029;-74
2023/01/13 11:31:45;;;;;;;23.40;3.88;;;;;;;9.76;100.00;100926.75;5057829;28;20408;-74
2023/01/13 11:34:45;;;;;;;22.58;3.75;;;;;;;9.81;100.00;100913.69;5064515;28;20036;-74
2023/01/13 11:37:28;;;;;;;25.77;4.07;;;;;;;9.90;100.00;100927.00;5057219;28;20536;-74
2023/01/13 11:39:56;;;;;;;;;;;;;;;9.97;100.00;100928.38;5044690;28;20024;-74
2023/01/13 11:42:37;;;;;;;24.52;4.10;;;;;;;10.04;100.00;100928.91;5055108;28;19935;-74
2023/01/13 11:45:16;;;;;;;21.15;3.90;;;;;;;10.12;100.00;100938.63;5059794;28;20036;-73
2023/01/13 11:47:43;;;;;;;32.25;4.93;;;;;;;10.17;100.00;100924.75;5061424;28;20025;-73
2023/01/13 11:50:41;;;;;;;25.30;4.03;;;;;;;10.26;100.00;100919.44;5054703;28;20120;-74
2023/01/13 11:53:26;;;;;;;27.58;4.35;;;;;;;10.50;100.00;100914.09;5032579;28;20068;-74
2023/01/13 11:56:00;;;;;;;29.25;4.13;;;;;;;10.78;100.00;100909.81;5061452;28;20112;-73
2023/01/13 11:58:53;;;;;;;36.03;3.95;;;;;;;11.07;100.00;100923.00;5062031;28;20033;-74
2023/01/13 12:01:36;;;;;;;24.02;4.10;;;;;;;10.92;100.00;100916.41;5067088;28;20036;-74
2023/01/13 12:04:24;;;;;;;24.10;3.63;;;;;;;10.80;100.00;100918.69;5068808;28;20041;-74
2023/01/13 12:07:12;;;;;;;26.65;4.20;;;;;;;10.74;100.00;100920.66;5055374;28;20087;-74
2023/01/13 12:09:44;;;;;;;20.98;3.53;;;;;;;10.71;100.00;100915.69;5080660;28;20032;-74
2023/01/13 12:12:34;;;;;;;33.47;4.63;;;;;;;10.68;100.00;100924.59;5067048;28;20508;-74
2023/01/13 12:15:23;;;;;;;29.20;3.97;;;;;;;10.68;100.00;100927.34;5055743;28;20029;-74
2023/01/13 12:18:07;;;;;;;30.33;4.38;;;;;;;10.67;100.00;100935.97;5058364;28;20058;-74